Time;durP1;ratioP1;P1;durP2;ratioP2;P2;SDS_P1;SDS_P2;PMS_P1;PMS_P2;Temp;Humidity;BMP_temperature;BMP_pressure;BME280_temperature;BME280_humidity;BME280_pressure;Samples;Min_cycle;Max_cycle;Signal;HPM_P1;HPM_P2
2022/12/02 00:02:31;;;;;;;60.07;31.33;;;5.80;99.90;;;;;;5035209;28;20211;-87
2022/12/02 00:05:01;;;;;;;56.77;29.23;;;5.80;99.90;;;;;;5034552;28;20263;-90
2022/12/02 00:07:36;;;;;;;59.70;30.80;;;5.70;99.90;;;;;;5035110;28;20203;-88
2022/12/02 00:10:23;;;;;;;57.90;31.77;;;5.70;99.90;;;;;;5034761;28;20194;-87
2022/12/02 00:12:50;;;;;;;55.17;29.03;;;5.50;99.90;;;;;;5028224;28;20898;-88
2022/12/02 00:15:37;;;;;;;56.43;29.70;;;5.30;99.90;;;;;;5033954;28;20219;-88
2022/12/02 00:18:07;;;;;;;60.63;30.27;;;5.30;99.90;;;;;;5034792;28;20206;-88
2022/12/02 00:20:35;;;;;;;62.10;29.87;;;5.40;99.90;;;;;;5035096;28;20239;-81
2022/12/02 00:23:02;;;;;;;59.07;30.10;;;5.30;99.90;;;;;;5034853;28;20583;-88
2022/12/02 00:25:32;;;;;;;60.67;28.67;;;5.20;99.90;;;;;;5034251;28;20670;-87
2022/12/02 00:28:00;;;;;;;65.73;31.10;;;4.90;99.90;;;;;;5034193;28;20211;-86
2022/12/02 00:30:27;;;;;;;62.93;29.90;;;4.90;99.90;;;;;;5034322;28;20206;-89
2022/12/02 00:32:55;;;;;;;54.57;27.87;;;4.60;99.90;;;;;;5034484;28;20206;-89
2022/12/02 00:35:24;;;;;;;58.03;29.83;;;4.60;99.90;;;;;;5020472;28;20306;-84
2022/12/02 00:37:51;;;;;;;57.33;29.20;;;4.60;99.90;;;;;;5037097;28;20206;-80
2022/12/02 00:40:18;;;;;;;64.57;32.03;;;4.50;99.90;;;;;;5038067;28;20206;-86
2022/12/02 00:42:44;;;;;;;63.90;31.37;;;4.30;99.90;;;;;;5038182;28;20195;-86
2022/12/02 00:47:57;;;;;;;62.00;30.50;;;4.40;99.90;;;;;;5038307;28;20276;-80
2022/12/02 00:50:26;;;;;;;58.27;30.80;;;4.50;99.90;;;;;;5037610;28;20199;-82
2022/12/02 00:52:52;;;;;;;57.43;30.30;;;4.60;99.90;;;;;;5037528;28;20227;-85
2022/12/02 00:55:23;;;;;;;57.53;30.43;;;4.60;99.90;;;;;;5038634;28;20222;-87
2022/12/02 00:57:49;;;;;;;63.13;30.83;;;4.70;99.90;;;;;;5032427;28;20283;-84
2022/12/02 01:00:17;;;;;;;59.57;32.13;;;4.80;99.90;;;;;;5031535;28;20234;-83
2022/12/02 01:02:49;;;;;;;57.47;29.40;;;4.90;99.90;;;;;;5038400;28;20211;-89
2022/12/02 01:05:16;;;;;;;58.87;31.00;;;5.00;99.90;;;;;;5037688;28;20226;-90
2022/12/02 01:07:46;;;;;;;67.43;31.00;;;5.00;99.90;;;;;;5037013;28;20824;-89
2022/12/02 01:10:14;;;;;;;71.70;32.47;;;4.50;99.90;;;;;;5037598;28;20203;-89
2022/12/02 01:12:43;;;;;;;67.83;31.77;;;4.40;99.90;;;;;;5037742;28;20206;-88
2022/12/02 01:15:11;;;;;;;71.43;33.30;;;4.30;99.90;;;;;;5037624;28;20222;-90
2022/12/02 01:17:38;;;;;;;67.90;34.10;;;4.20;99.90;;;;;;5038739;28;20554;-84
2022/12/02 01:20:06;;;;;;;71.87;33.37;;;4.20;99.90;;;;;;5037691;28;20203;-82
2022/12/02 01:22:33;;;;;;;75.80;35.87;;;4.10;99.90;;;;;;5036189;28;20221;-83
2022/12/02 01:25:03;;;;;;;69.57;33.60;;;4.10;99.90;;;;;;5036927;28;20207;-84
2022/12/02 01:27:30;;;;;;;73.40;32.90;;;4.00;99.90;;;;;;5036130;28;20203;-81
2022/12/02 01:29:57;;;;;;;69.30;32.47;;;3.80;99.90;;;;;;5035916;28;20950;-82
2022/12/02 01:32:24;;;;;;;72.97;32.47;;;3.80;99.90;;;;;;5035525;28;20448;-83
2022/12/02 01:34:51;;;;;;;66.33;31.70;;;3.80;99.90;;;;;;5036419;28;20492;-83
2022/12/02 01:37:23;;;;;;;65.33;31.73;;;3.90;99.90;;;;;;5036680;28;20437;-84
2022/12/02 01:39:50;;;;;;;66.43;33.53;;;3.80;99.90;;;;;;5037615;28;20471;-90
2022/12/02 01:42:18;;;;;;;68.13;33.37;;;3.60;99.90;;;;;;5036971;28;20207;-88
2022/12/02 01:44:48;;;;;;;58.30;29.60;;;3.70;99.90;;;;;;5037194;28;20444;-85
2022/12/02 01:47:15;;;;;;;60.70;30.83;;;3.70;99.90;;;;;;5036236;28;20430;-85
2022/12/02 01:49:43;;;;;;;62.73;29.87;;;3.70;99.90;;;;;;5036676;28;20206;-87
2022/12/02 01:52:16;;;;;;;61.77;28.67;;;3.80;99.90;;;;;;5035618;28;20444;-89
2022/12/02 01:54:46;;;;;;;58.70;29.37;;;3.70;99.90;;;;;;5036617;28;20870;-86
2022/12/02 01:57:15;;;;;;;61.87;29.80;;;3.80;99.90;;;;;;5027157;28;20219;-80
2022/12/02 01:59:49;;;;;;;61.73;30.23;;;4.00;99.90;;;;;;5016708;28;20200;-88
2022/12/02 02:02:30;;;;;;;57.33;29.37;;;3.80;99.90;;;;;;5016653;28;20433;-90
2022/12/02 02:05:00;;;;;;;57.10;29.27;;;3.80;99.90;;;;;;5016272;28;20452;-88
2022/12/02 02:07:28;;;;;;;68.40;30.67;;;4.00;99.90;;;;;;5016349;28;20476;-81
2022/12/02 02:09:55;;;;;;;64.53;30.27;;;4.10;99.90;;;;;;5015829;28;20566;-82
2022/12/02 02:12:24;;;;;;;61.33;28.63;;;4.10;99.90;;;;;;5015633;28;20441;-86
2022/12/02 02:14:53;;;;;;;56.37;28.13;;;3.90;99.90;;;;;;5015610;28;20493;-83
2022/12/02 02:17:20;;;;;;;61.73;29.43;;;4.00;99.90;;;;;;5015469;28;20460;-79
2022/12/02 02:19:47;;;;;;;55.93;28.03;;;4.20;99.90;;;;;;5015584;28;20462;-84
2022/12/02 02:22:26;;;;;;;63.13;30.90;;;4.10;99.90;;;;;;5015848;28;20434;-89
2022/12/02 02:24:54;;;;;;;66.93;30.70;;;4.10;99.90;;;;;;5016334;28;20445;-91
2022/12/02 02:27:21;;;;;;;62.40;29.60;;;4.20;99.90;;;;;;5016026;28;20215;-88
2022/12/02 02:29:49;;;;;;;59.83;29.83;;;4.20;99.90;;;;;;5015895;28;20204;-88
2022/12/02 02:32:18;;;;;;;64.10;29.27;;;4.20;99.90;;;;;;5015659;28;20817;-88
2022/12/02 02:34:45;;;;;;;60.90;31.40;;;4.40;99.90;;;;;;5015572;28;20231;-89
2022/12/02 02:37:14;;;;;;;57.93;29.77;;;4.30;99.90;;;;;;5015721;28;20670;-90
2022/12/02 02:39:41;;;;;;;65.03;30.90;;;4.40;99.90;;;;;;5015774;28;20207;-89
2022/12/02 02:42:09;;;;;;;66.30;32.07;;;4.50;99.90;;;;;;5016351;28;20188;-85
2022/12/02 02:44:36;;;;;;;62.97;31.23;;;4.40;99.90;;;;;;5016416;28;20208;-86
2022/12/02 02:47:08;;;;;;;62.47;30.70;;;4.50;99.90;;;;;;5016749;28;20248;-85
2022/12/02 02:49:36;;;;;;;64.20;31.37;;;4.60;99.90;;;;;;5015943;28;20212;-87
2022/12/02 02:52:03;;;;;;;58.10;30.23;;;4.70;99.90;;;;;;5016511;28;20203;-80
2022/12/02 02:54:30;;;;;;;56.90;30.37;;;4.90;99.90;;;;;;5016509;28;20224;-86
2022/12/02 02:57:06;;;;;;;62.40;31.77;;;4.90;99.90;;;;;;5016399;28;20204;-86
2022/12/02 02:59:42;;;;;;;60.40;29.80;;;5.00;99.90;;;;;;5016343;28;20687;-90
2022/12/02 03:02:17;;;;;;;60.90;29.93;;;4.90;99.90;;;;;;5016934;28;20261;-90
2022/12/02 03:04:44;;;;;;;62.80;30.07;;;5.00;99.90;;;;;;5016078;28;20780;-88
2022/12/02 03:07:12;;;;;;;62.37;30.77;;;5.10;99.90;;;;;;5015781;28;20561;-84
2022/12/02 03:09:39;;;;;;;58.87;31.13;;;5.10;99.90;;;;;;5015191;28;20203;-82
2022/12/02 03:12:08;;;;;;;61.47;30.57;;;5.00;99.90;;;;;;5015156;28;20647;-85
2022/12/02 03:14:37;;;;;;;61.13;29.80;;;5.20;99.90;;;;;;5014984;28;20683;-78
2022/12/02 03:17:05;;;;;;;63.77;31.07;;;5.20;99.90;;;;;;5015259;28;20582;-87
2022/12/02 03:19:33;;;;;;;57.87;30.03;;;5.10;99.90;;;;;;5014740;28;20200;-82
2022/12/02 03:22:01;;;;;;;59.20;29.87;;;5.10;99.90;;;;;;5015001;28;20207;-82
2022/12/02 03:24:32;;;;;;;61.20;30.33;;;4.90;99.90;;;;;;5014803;28;20215;-81
2022/12/02 03:27:00;;;;;;;56.57;29.30;;;5.10;99.90;;;;;;5015035;28;20188;-81
2022/12/02 03:29:29;;;;;;;55.10;29.73;;;5.20;99.90;;;;;;5014519;28;20207;-82
2022/12/02 03:31:58;;;;;;;54.60;29.63;;;5.20;99.90;;;;;;5014452;28;20208;-81
2022/12/02 03:34:29;;;;;;;62.67;30.77;;;5.20;99.90;;;;;;5014750;28;20208;-84
2022/12/02 03:36:58;;;;;;;57.67;30.60;;;5.10;99.90;;;;;;5014759;28;20238;-80
2022/12/02 03:39:26;;;;;;;56.67;30.20;;;5.20;99.90;;;;;;5014550;28;20196;-82
2022/12/02 03:41:54;;;;;;;57.30;29.37;;;5.20;99.90;;;;;;5015026;28;20188;-82
2022/12/02 03:44:21;;;;;;;61.70;31.80;;;5.20;99.90;;;;;;5014334;28;20196;-83
2022/12/02 03:46:49;;;;;;;62.17;32.10;;;5.20;99.90;;;;;;5013738;28;20208;-82
2022/12/02 03:49:17;;;;;;;60.23;31.37;;;5.30;99.90;;;;;;5013841;28;20230;-84
2022/12/02 03:51:47;;;;;;;58.63;31.37;;;5.30;99.90;;;;;;5014098;28;20287;-86
2022/12/02 03:54:14;;;;;;;59.30;30.60;;;5.20;99.90;;;;;;5014085;28;20224;-87
2022/12/02 03:56:42;;;;;;;60.83;30.23;;;5.30;99.90;;;;;;5013753;28;20223;-84
2022/12/02 03:59:11;;;;;;;71.20;44.17;;;5.20;99.90;;;;;;5012928;28;20526;-84
2022/12/02 04:01:38;;;;;;;66.17;34.60;;;5.40;99.90;;;;;;5013914;28;20594;-79
2022/12/02 04:04:05;;;;;;;65.20;32.10;;;5.40;99.90;;;;;;5013979;28;20216;-85
2022/12/02 04:06:31;;;;;;;62.47;34.07;;;5.50;99.90;;;;;;5013824;28;20197;-80
2022/12/02 04:09:00;;;;;;;55.90;31.13;;;5.50;99.90;;;;;;5013569;28;20206;-84
2022/12/02 04:11:26;;;;;;;60.20;30.73;;;5.60;99.90;;;;;;5013094;28;20561;-84
2022/12/02 04:13:53;;;;;;;59.47;31.03;;;5.70;99.90;;;;;;5013703;28;20211;-82
2022/12/02 04:16:20;;;;;;;62.73;32.47;;;5.70;99.90;;;;;;5013281;28;20227;-81
2022/12/02 04:18:47;;;;;;;59.90;30.27;;;5.70;99.90;;;;;;5013650;28;20222;-85
2022/12/02 04:21:14;;;;;;;65.72;34.78;;;5.70;99.90;;;;;;5013123;28;20807;-82
2022/12/02 04:23:41;;;;;;;57.30;31.53;;;5.50;99.90;;;;;;5013110;28;20564;-82
2022/12/02 04:26:10;;;;;;;60.63;31.40;;;5.40;99.90;;;;;;5013249;28;20211;-80
2022/12/02 04:28:38;;;;;;;60.23;30.70;;;5.50;99.90;;;;;;5013147;28;20218;-83
2022/12/02 04:31:05;;;;;;;62.97;31.40;;;5.50;99.90;;;;;;5012543;28;20204;-82
2022/12/02 04:33:31;;;;;;;62.83;32.07;;;5.50;99.90;;;;;;5013229;28;20203;-81
2022/12/02 04:35:58;;;;;;;60.97;29.97;;;5.50;99.90;;;;;;5013048;28;20282;-78
2022/12/02 04:38:25;;;;;;;63.10;31.37;;;5.60;99.90;;;;;;5013336;28;20615;-83
2022/12/02 04:40:52;;;;;;;57.73;31.77;;;5.50;99.90;;;;;;5012760;28;20211;-79
2022/12/02 04:43:20;;;;;;;60.87;31.13;;;5.60;99.90;;;;;;5013185;28;20226;-77
2022/12/02 04:45:47;;;;;;;62.43;31.53;;;5.50;99.90;;;;;;5012933;28;20203;-80
2022/12/02 04:48:14;;;;;;;64.90;32.77;;;5.80;99.90;;;;;;5013277;28;20210;-81
2022/12/02 04:50:41;;;;;;;65.70;31.70;;;5.70;99.90;;;;;;5012734;28;20206;-80
2022/12/02 04:53:08;;;;;;;59.63;30.77;;;5.70;99.90;;;;;;5013268;28;20231;-81
2022/12/02 04:55:35;;;;;;;61.60;34.07;;;5.70;99.90;;;;;;5012636;28;20229;-82
2022/12/02 04:58:03;;;;;;;66.07;32.00;;;5.60;99.90;;;;;;5012911;28;20760;-81
2022/12/02 05:00:31;;;;;;;65.30;33.33;;;5.70;99.90;;;;;;5012407;28;20604;-83
2022/12/02 05:02:59;;;;;;;63.77;33.10;;;5.50;99.90;;;;;;5012757;28;20595;-81
2022/12/02 05:05:26;;;;;;;67.73;33.00;;;5.40;99.90;;;;;;5012739;28;20216;-80
2022/12/02 05:07:53;;;;;;;61.87;32.13;;;5.30;99.90;;;;;;5012592;28;20197;-83
2022/12/02 05:10:20;;;;;;;63.10;32.27;;;5.40;99.90;;;;;;5013262;28;20188;-83
2022/12/02 05:12:46;;;;;;;62.30;32.13;;;5.70;99.90;;;;;;5012749;28;20204;-81
2022/12/02 05:15:14;;;;;;;60.80;31.23;;;5.70;99.90;;;;;;5012768;28;20223;-83
2022/12/02 05:17:42;;;;;;;59.87;31.60;;;5.60;99.90;;;;;;5012827;28;20203;-82
2022/12/02 05:20:10;;;;;;;63.63;30.93;;;5.50;99.90;;;;;;5012908;28;20654;-82
2022/12/02 05:22:37;;;;;;;59.73;32.10;;;5.60;99.90;;;;;;5013517;28;20298;-83
2022/12/02 05:25:05;;;;;;;61.60;32.43;;;5.80;99.90;;;;;;5016665;28;20536;-83
2022/12/02 05:27:32;;;;;;;61.23;32.00;;;5.70;99.90;;;;;;5016048;28;20565;-83
2022/12/02 05:29:59;;;;;;;60.90;32.97;;;5.60;99.90;;;;;;5015908;28;20215;-82
2022/12/02 05:32:25;;;;;;;66.47;33.47;;;5.80;99.90;;;;;;5016379;28;20204;-83
2022/12/02 05:34:54;;;;;;;63.97;32.73;;;6.00;99.90;;;;;;5015994;28;20214;-82
2022/12/02 05:37:20;;;;;;;59.27;30.70;;;6.00;99.90;;;;;;5015195;28;20231;-81
2022/12/02 05:39:47;;;;;;;64.93;33.03;;;6.00;99.90;;;;;;5015216;28;20207;-83
2022/12/02 05:42:15;;;;;;;69.27;33.40;;;6.00;99.90;;;;;;5015744;28;20203;-83
2022/12/02 05:44:42;;;;;;;61.13;31.70;;;5.80;99.90;;;;;;5015828;28;20537;-81
2022/12/02 05:47:12;;;;;;;67.17;32.97;;;5.80;99.90;;;;;;5015603;28;20694;-81
2022/12/02 05:49:40;;;;;;;69.63;33.13;;;5.80;99.90;;;;;;5016124;28;20261;-82
2022/12/02 05:52:20;;;;;;;66.77;32.70;;;5.60;99.90;;;;;;5015762;28;20208;-82
2022/12/02 05:54:52;;;;;;;64.17;33.10;;;5.60;99.90;;;;;;5016022;28;20219;-79
2022/12/02 05:57:21;;;;;;;70.70;33.83;;;5.50;99.90;;;;;;5015386;28;20234;-81
2022/12/02 05:59:49;;;;;;;68.90;33.27;;;5.60;99.90;;;;;;5015111;28;20568;-81
2022/12/02 06:02:25;;;;;;;72.23;33.83;;;5.50;99.90;;;;;;5031464;28;20199;-79
2022/12/02 06:04:52;;;;;;;63.90;31.73;;;5.60;99.90;;;;;;5034873;28;20692;-83
2022/12/02 06:07:21;;;;;;;72.10;35.93;;;5.70;99.90;;;;;;5035386;28;20225;-82
2022/12/02 06:09:48;;;;;;;71.87;33.40;;;5.70;99.90;;;;;;5034827;28;20199;-81
2022/12/02 06:12:17;;;;;;;74.83;36.07;;;5.50;99.90;;;;;;5034183;28;20208;-81
2022/12/02 06:14:48;;;;;;;68.90;33.93;;;5.50;99.90;;;;;;5035419;28;20649;-80
2022/12/02 06:17:18;;;;;;;85.33;33.90;;;5.70;99.90;;;;;;5035079;28;20231;-81
2022/12/02 06:19:47;;;;;;;71.83;35.20;;;5.70;99.90;;;;;;5034836;28;20674;-81
2022/12/02 06:22:19;;;;;;;73.47;34.63;;;5.70;99.90;;;;;;5035274;28;20192;-81
2022/12/02 06:24:47;;;;;;;72.43;34.40;;;5.50;99.90;;;;;;5035205;28;20199;-84
2022/12/02 06:27:16;;;;;;;79.83;37.17;;;5.50;99.90;;;;;;5034992;28;20247;-82
2022/12/02 06:29:48;;;;;;;84.33;37.23;;;5.50;99.90;;;;;;5034790;28;20198;-80
2022/12/02 06:32:18;;;;;;;75.80;34.70;;;5.40;99.90;;;;;;5034628;28;20234;-82
2022/12/02 06:34:46;;;;;;;77.50;36.43;;;5.40;99.90;;;;;;5034593;28;20215;-82
2022/12/02 06:37:16;;;;;;;80.40;36.10;;;5.30;99.90;;;;;;5034433;28;20227;-80
2022/12/02 06:39:44;;;;;;;77.23;34.77;;;5.40;99.90;;;;;;5033541;28;20199;-82
2022/12/02 06:42:20;;;;;;;69.00;35.33;;;5.30;99.90;;;;;;5024118;28;20655;-82
2022/12/02 06:45:04;;;;;;;78.47;36.57;;;5.20;99.90;;;;;;5016959;28;20211;-79
2022/12/02 06:47:50;;;;;;;85.13;36.87;;;5.20;99.90;;;;;;5028629;28;20218;-81
2022/12/02 06:50:29;;;;;;;77.23;35.27;;;5.10;99.90;;;;;;5033432;28;20207;-78
2022/12/02 06:53:10;;;;;;;88.47;38.07;;;5.10;99.90;;;;;;5032923;28;20222;-80
2022/12/02 06:55:39;;;;;;;91.27;39.30;;;5.10;99.90;;;;;;5034118;28;20205;-80
2022/12/02 06:58:25;;;;;;;92.17;41.10;;;5.20;99.90;;;;;;5029347;28;20220;-82
2022/12/02 07:00:52;;;;;;;98.37;41.17;;;5.10;99.90;;;;;;5033437;28;20210;-83
2022/12/02 07:03:30;;;;;;;104.33;41.80;;;5.10;99.90;;;;;;5027901;28;20199;-80
2022/12/02 07:06:10;;;;;;;101.10;46.03;;;5.10;99.90;;;;;;5028342;28;20217;-82
2022/12/02 07:08:37;;;;;;;111.00;47.60;;;5.20;99.90;;;;;;5021081;28;20199;-86
2022/12/02 07:11:04;;;;;;;112.93;46.87;;;5.20;99.90;;;;;;5013750;28;20207;-85
2022/12/02 07:13:32;;;;;;;113.23;45.70;;;5.20;99.90;;;;;;5027511;28;20203;-83
2022/12/02 07:15:59;;;;;;;111.87;46.67;;;5.30;99.90;;;;;;5021182;28;20677;-81
2022/12/02 07:18:25;;;;;;;108.53;44.47;;;5.10;99.90;;;;;;5033372;28;20571;-84
2022/12/02 07:20:52;;;;;;;107.00;45.97;;;5.20;99.90;;;;;;5033645;28;20210;-82
2022/12/02 07:23:21;;;;;;;114.80;43.10;;;5.20;99.90;;;;;;5033791;28;20211;-82
2022/12/02 07:25:49;;;;;;;104.03;43.83;;;5.20;99.90;;;;;;5033606;28;20606;-84
2022/12/02 07:28:24;;;;;;;110.27;41.20;;;5.20;99.90;;;;;;5033410;28;20313;-83
2022/12/02 07:30:57;;;;;;;103.50;40.70;;;5.10;99.90;;;;;;5033634;28;20206;-85
2022/12/02 07:33:24;;;;;;;110.30;40.73;;;5.20;99.90;;;;;;5033729;28;20207;-81
2022/12/02 07:35:51;;;;;;;108.70;41.07;;;5.10;99.90;;;;;;5033613;28;20211;-82
2022/12/02 07:38:18;;;;;;;101.63;41.07;;;5.10;99.90;;;;;;5032908;28;20681;-82
2022/12/02 07:40:45;;;;;;;84.90;35.47;;;5.10;99.90;;;;;;5033109;28;20210;-82
2022/12/02 07:43:12;;;;;;;86.53;35.03;;;5.00;99.90;;;;;;5032773;28;20214;-79
2022/12/02 07:45:39;;;;;;;88.83;34.73;;;4.90;99.90;;;;;;5032753;28;20204;-79
2022/12/02 07:48:07;;;;;;;86.90;36.00;;;4.90;99.90;;;;;;5032737;28;20199;-80
2022/12/02 07:50:34;;;;;;;91.47;35.00;;;4.90;99.90;;;;;;5033913;28;20279;-79
2022/12/02 07:53:01;;;;;;;91.57;35.83;;;4.90;99.90;;;;;;5027159;28;20694;-81
2022/12/02 07:55:28;;;;;;;86.33;32.90;;;4.80;99.90;;;;;;5012227;28;20199;-78
2022/12/02 07:57:54;;;;;;;93.50;34.10;;;4.80;99.90;;;;;;5014748;28;20232;-77
2022/12/02 08:00:23;;;;;;;107.70;47.00;;;4.80;99.90;;;;;;5013323;28;20825;-81
2022/12/02 08:02:50;;;;;;;91.17;36.57;;;5.00;99.90;;;;;;5014577;28;20200;-78
2022/12/02 08:05:18;;;;;;;92.23;36.93;;;4.90;99.90;;;;;;5011909;28;20212;-81
2022/12/02 08:07:46;;;;;;;89.20;36.37;;;4.90;99.90;;;;;;5023141;28;20286;-81
2022/12/02 08:10:13;;;;;;;87.43;35.47;;;4.90;99.90;;;;;;5030163;28;20208;-80
2022/12/02 08:12:41;;;;;;;91.47;36.87;;;5.00;99.90;;;;;;5021723;28;20204;-80
2022/12/02 08:15:09;;;;;;;86.43;33.30;;;5.10;99.90;;;;;;5026633;28;20673;-82
2022/12/02 08:17:37;;;;;;;93.07;37.30;;;4.70;99.90;;;;;;5012734;28;20231;-80
2022/12/02 08:20:04;;;;;;;76.97;33.27;;;4.70;99.90;;;;;;5030725;28;20672;-81
2022/12/02 08:22:33;;;;;;;75.73;30.77;;;4.70;99.90;;;;;;5032886;28;20207;-81
2022/12/02 08:24:59;;;;;;;76.07;31.83;;;4.60;99.90;;;;;;5031567;28;20191;-82
2022/12/02 08:27:26;;;;;;;77.63;30.93;;;4.70;99.90;;;;;;5031543;28;20646;-80
2022/12/02 08:29:54;;;;;;;78.90;30.27;;;4.50;99.90;;;;;;5029261;28;20208;-82
2022/12/02 08:32:21;;;;;;;73.70;31.60;;;4.60;99.90;;;;;;5022345;28;20207;-83
2022/12/02 08:34:48;;;;;;;73.50;30.67;;;4.70;99.90;;;;;;5033113;28;20459;-84
2022/12/02 08:37:15;;;;;;;73.67;30.13;;;4.60;99.90;;;;;;5032870;28;20219;-83
2022/12/02 08:39:44;;;;;;;74.37;30.93;;;4.60;99.90;;;;;;5034911;28;20209;-86
2022/12/02 08:42:10;;;;;;;75.77;30.23;;;4.50;99.90;;;;;;5033697;28;20573;-85
2022/12/02 08:44:37;;;;;;;69.00;28.97;;;4.60;99.90;;;;;;5033541;28;20199;-84
2022/12/02 08:47:04;;;;;;;68.40;30.23;;;4.60;99.90;;;;;;5033236;28;20196;-82
2022/12/02 08:49:31;;;;;;;65.97;30.43;;;4.60;99.90;;;;;;5032984;28;20206;-81
2022/12/02 08:51:57;;;;;;;66.50;30.00;;;4.70;99.90;;;;;;5035812;28;20564;-81
2022/12/02 08:54:25;;;;;;;66.63;30.70;;;4.70;99.90;;;;;;5037624;28;20230;-81
2022/12/02 08:56:55;;;;;;;69.87;31.40;;;4.70;99.90;;;;;;5037907;28;20490;-85
2022/12/02 08:59:22;;;;;;;72.93;33.47;;;4.70;99.90;;;;;;5030803;28;20212;-81
2022/12/02 09:01:49;;;;;;;71.17;30.80;;;4.70;99.90;;;;;;5041130;28;20211;-82
2022/12/02 09:04:16;;;;;;;67.03;30.83;;;4.60;99.90;;;;;;5021008;28;20302;-79
2022/12/02 09:06:42;;;;;;;67.30;29.50;;;4.50;99.90;;;;;;5030192;28;20650;-83
2022/12/02 09:09:09;;;;;;;62.70;29.37;;;4.50;99.90;;;;;;5037552;28;20205;-80
2022/12/02 09:11:36;;;;;;;66.47;27.83;;;4.40;99.90;;;;;;5031777;28;20218;-79
2022/12/02 09:14:04;;;;;;;58.37;28.17;;;4.50;99.90;;;;;;5030564;28;20200;-79
2022/12/02 09:16:31;;;;;;;66.00;34.20;;;4.60;99.90;;;;;;5026566;28;20431;-79
2022/12/02 09:18:58;;;;;;;63.57;29.37;;;4.60;99.90;;;;;;5016023;28;20572;-80
2022/12/02 09:21:25;;;;;;;69.03;28.17;;;4.50;99.90;;;;;;5016522;28;20591;-81
2022/12/02 09:23:52;;;;;;;55.87;26.27;;;4.50;99.90;;;;;;5017072;28;20204;-81
2022/12/02 09:26:20;;;;;;;54.90;25.97;;;4.60;99.90;;;;;;5017754;28;20211;-90
2022/12/02 09:28:47;;;;;;;55.43;24.40;;;4.70;99.90;;;;;;5017444;28;20204;-82
2022/12/02 09:31:15;;;;;;;52.53;23.77;;;4.60;99.90;;;;;;5016859;28;20209;-80
2022/12/02 09:33:42;;;;;;;53.77;23.63;;;4.60;99.90;;;;;;5016695;28;20643;-79
2022/12/02 09:36:09;;;;;;;55.10;22.43;;;4.40;99.90;;;;;;5016643;28;20651;-81
2022/12/02 09:38:37;;;;;;;48.20;23.70;;;4.40;99.90;;;;;;5018594;28;20492;-83
2022/12/02 09:41:04;;;;;;;51.00;23.10;;;4.40;99.90;;;;;;5020427;28;20211;-88
2022/12/02 09:43:31;;;;;;;56.80;24.07;;;4.40;99.90;;;;;;5016952;28;20207;-78
2022/12/02 09:45:59;;;;;;;46.30;22.77;;;4.40;99.90;;;;;;5016730;28;20448;-87
2022/12/02 09:48:28;;;;;;;43.90;22.00;;;4.60;99.90;;;;;;5016990;28;20538;-83
2022/12/02 09:50:56;;;;;;;47.30;22.43;;;4.70;99.90;;;;;;5016509;28;20200;-78
2022/12/02 09:53:30;;;;;;;46.03;22.27;;;4.50;99.90;;;;;;5016431;28;20224;-78
2022/12/02 09:55:57;;;;;;;43.33;21.03;;;4.60;99.90;;;;;;5016251;28;20233;-80
2022/12/02 09:58:26;;;;;;;48.13;23.00;;;4.60;99.90;;;;;;5015710;28;20243;-80
2022/12/02 10:00:53;;;;;;;43.50;22.37;;;4.60;99.90;;;;;;5015662;28;20647;-81
2022/12/02 10:03:25;;;;;;;44.93;24.07;;;4.70;99.90;;;;;;5015517;28;20449;-80
2022/12/02 10:05:53;;;;;;;50.50;23.23;;;4.80;99.90;;;;;;5017006;28;20289;-78
2022/12/02 10:08:23;;;;;;;48.45;22.67;;;4.90;99.90;;;;;;5015694;28;20408;-78
2022/12/02 10:10:51;;;;;;;45.73;22.30;;;4.70;99.90;;;;;;5016063;28;20562;-79
2022/12/02 10:13:21;;;;;;;50.37;23.10;;;4.60;99.90;;;;;;5015509;28;20212;-78
2022/12/02 10:15:47;;;;;;;50.70;24.87;;;4.60;99.90;;;;;;5016541;28;20200;-76
2022/12/02 10:18:17;;;;;;;41.57;23.13;;;4.70;99.90;;;;;;5015764;28;20733;-79
2022/12/02 10:20:45;;;;;;;47.40;23.50;;;4.80;99.90;;;;;;5015505;28;20219;-76
2022/12/02 10:23:16;;;;;;;45.70;22.93;;;4.70;99.90;;;;;;5016607;28;20216;-80
2022/12/02 10:25:44;;;;;;;44.90;22.33;;;4.70;99.90;;;;;;5016152;28;20215;-75
2022/12/02 10:28:25;;;;;;;49.23;22.77;;;4.60;99.90;;;;;;5016466;28;20561;-78
2022/12/02 10:30:55;;;;;;;42.90;21.47;;;4.60;99.90;;;;;;5016759;28;20199;-76
2022/12/02 10:33:27;;;;;;;44.10;21.33;;;4.60;99.90;;;;;;5015167;28;20799;-86
2022/12/02 10:35:56;;;;;;;48.75;28.20;;;4.60;99.90;;;;;;5014485;28;20440;-78
2022/12/02 10:38:35;;;;;;;43.27;22.20;;;4.70;99.90;;;;;;5017231;28;20223;-89
2022/12/02 10:41:20;;;;;;;50.40;23.73;;;4.80;99.90;;;;;;5018100;28;20211;-86
2022/12/02 10:44:04;;;;;;;45.10;21.50;;;4.90;99.90;;;;;;5017357;28;20694;-86
2022/12/02 10:46:32;;;;;;;41.00;20.70;;;5.00;99.90;;;;;;5016509;28;20204;-81
2022/12/02 10:49:18;;;;;;;43.47;19.60;;;5.00;99.90;;;;;;5016782;28;20210;-93
2022/12/02 10:51:44;;;;;;;41.17;21.10;;;4.80;99.90;;;;;;5018569;28;20214;-84
2022/12/02 10:54:22;;;;;;;44.77;21.97;;;4.70;99.90;;;;;;5017637;28;20230;-94
2022/12/02 10:56:48;;;;;;;45.87;23.30;;;4.50;99.90;;;;;;5018584;28;20214;-87
2022/12/02 10:59:16;;;;;;;45.73;22.10;;;4.60;99.90;;;;;;5015072;28;20235;-80
2022/12/02 11:01:43;;;;;;;43.43;21.67;;;4.70;99.90;;;;;;5015220;28;20192;-82
2022/12/02 11:04:12;;;;;;;47.47;22.80;;;4.80;99.90;;;;;;5015295;28;20575;-81
2022/12/02 11:06:39;;;;;;;40.73;21.80;;;4.60;99.90;;;;;;5014268;28;20214;-81
2022/12/02 11:09:06;;;;;;;43.47;22.60;;;4.80;99.90;;;;;;5014922;28;20219;-81
2022/12/02 11:11:42;;;;;;;41.20;21.87;;;4.80;99.90;;;;;;5015320;28;20203;-81
2022/12/02 11:14:12;;;;;;;37.70;19.20;;;4.80;99.90;;;;;;5014990;28;20196;-82
2022/12/02 11:17:01;;;;;;;48.27;20.97;;;4.70;99.90;;;;;;5014765;28;20246;-83
2022/12/02 11:19:47;;;;;;;43.03;19.60;;;4.80;99.90;;;;;;5014200;28;20251;-81
2022/12/02 11:23:02;;;;;;;40.40;20.93;;;4.90;99.90;;;;;;5014382;28;20192;-81
2022/12/02 11:26:06;;;;;;;37.57;20.30;;;4.80;99.90;;;;;;5033804;28;20203;-79
2022/12/02 11:28:37;;;;;;;43.63;21.90;;;5.00;99.90;;;;;;5034355;28;20427;-80
2022/12/02 11:31:26;;;;;;;39.47;20.17;;;4.60;99.90;;;;;;5034150;28;20207;-83
2022/12/02 11:34:30;;;;;;;46.07;20.33;;;4.60;99.90;;;;;;5034699;28;20203;-79
2022/12/02 11:37:33;;;;;;;39.87;19.53;;;4.80;99.90;;;;;;5034851;28;20203;-82
2022/12/02 11:40:03;;;;;;;40.73;20.17;;;4.80;99.90;;;;;;5033781;28;20193;-83
2022/12/02 11:42:35;;;;;;;44.17;19.17;;;4.70;99.90;;;;;;5034125;28;20207;-79
2022/12/02 11:45:33;;;;;;;38.00;19.43;;;4.50;99.90;;;;;;5034000;28;20207;-81
2022/12/02 11:48:02;;;;;;;38.40;18.40;;;4.60;99.90;;;;;;5033354;28;20269;-79
2022/12/02 11:50:39;;;;;;;39.63;19.77;;;4.60;99.90;;;;;;5034034;28;20639;-87
2022/12/02 11:53:14;;;;;;;40.20;18.53;;;4.60;99.90;;;;;;5029643;28;20713;-80
2022/12/02 11:55:53;;;;;;;38.38;20.23;;;4.90;99.90;;;;;;5018050;28;20434;-82
2022/12/02 11:58:25;;;;;;;41.00;19.07;;;4.70;99.90;;;;;;5030597;28;20242;-92
2022/12/02 12:01:16;;;;;;;33.83;17.53;;;4.70;99.90;;;;;;5035020;28;20558;-91
2022/12/02 12:03:45;;;;;;;37.40;17.73;;;4.70;99.90;;;;;;5019390;28;20279;-88
2022/12/02 12:06:16;;;;;;;38.60;19.00;;;4.80;99.90;;;;;;5025831;28;20283;-91
2022/12/02 12:08:45;;;;;;;36.93;18.73;;;4.80;99.90;;;;;;5031751;28;20290;-91
2022/12/02 12:11:21;;;;;;;38.03;19.00;;;4.70;99.90;;;;;;5034955;28;20622;-91
2022/12/02 12:14:03;;;;;;;34.33;16.20;;;4.80;99.90;;;;;;5025344;28;20204;-90
2022/12/02 12:16:38;;;;;;;27.70;15.77;;;4.80;99.90;;;;;;5032298;28;20230;-91
2022/12/02 12:19:25;;;;;;;30.07;16.00;;;4.70;99.90;;;;;;5035262;28;20234;-90
2022/12/02 12:21:55;;;;;;;29.13;15.87;;;5.10;99.90;;;;;;5022089;28;20207;-91
2022/12/02 12:24:33;;;;;;;33.83;16.37;;;5.10;99.90;;;;;;5023677;28;20210;-91
2022/12/02 12:27:12;;;;;;;37.80;17.10;;;4.90;99.90;;;;;;5014974;28;20203;-91
2022/12/02 12:29:42;;;;;;;32.70;16.80;;;5.00;99.90;;;;;;5029401;28;20265;-91
2022/12/02 12:32:12;;;;;;;35.47;17.47;;;4.80;99.90;;;;;;5037254;28;20331;-91
2022/12/02 12:34:42;;;;;;;30.77;15.23;;;4.90;99.90;;;;;;5039628;28;20664;-91
2022/12/02 12:37:12;;;;;;;27.63;14.97;;;4.90;99.90;;;;;;5021030;28;20203;-92
2022/12/02 12:39:40;;;;;;;29.63;15.70;;;4.70;99.90;;;;;;5019096;28;20335;-91
2022/12/02 12:42:08;;;;;;;27.67;16.37;;;4.70;99.90;;;;;;5020064;28;20663;-91
2022/12/02 12:44:35;;;;;;;28.27;15.93;;;4.80;99.90;;;;;;5027185;28;20206;-80
2022/12/02 12:47:05;;;;;;;30.53;16.93;;;4.70;99.90;;;;;;5037070;28;20218;-82
2022/12/02 12:49:34;;;;;;;30.27;16.00;;;4.80;99.90;;;;;;5037301;28;20359;-83
2022/12/02 12:52:02;;;;;;;32.80;16.73;;;4.80;99.90;;;;;;5023543;28;20212;-82
2022/12/02 12:54:29;;;;;;;32.97;16.73;;;4.90;99.90;;;;;;5027621;28;20228;-84